createdAt,value
2019-01-19T00:02:59.848Z,11.95
2019-01-19T00:06:28.222Z,10.85
2019-01-19T00:09:26.409Z,8.88
2019-01-19T00:12:37.925Z,9.98
2019-01-19T00:15:45.628Z,9.93
2019-01-19T00:19:36.717Z,9.15
2019-01-19T00:22:25.876Z,9.33
2019-01-19T00:25:40.693Z,10.90
2019-01-19T00:28:39.526Z,9.03
2019-01-19T00:31:19.590Z,10.23
2019-01-19T00:34:18.720Z,9.05
2019-01-19T00:37:20.963Z,8.83
2019-01-19T00:40:56.056Z,9.40
2019-01-19T00:44:07.276Z,7.95
2019-01-19T00:47:29.302Z,6.58
2019-01-19T00:50:48.485Z,6.83
2019-01-19T00:53:34.076Z,7.20
2019-01-19T00:56:39.521Z,6.05
2019-01-19T00:59:27.322Z,6.85
2019-01-19T01:02:33.115Z,5.70
2019-01-19T01:05:25.258Z,8.85
2019-01-19T01:08:31.311Z,8.23
2019-01-19T01:11:34.231Z,9.88
2019-01-19T01:14:58.969Z,8.70
2019-01-19T01:18:00.112Z,8.80
2019-01-19T01:21:24.635Z,8.28
2019-01-19T01:24:33.675Z,7.72
2019-01-19T01:27:30.309Z,8.33
2019-01-19T01:30:58.394Z,8.43
2019-01-19T01:34:29.927Z,7.67
2019-01-19T01:37:20.863Z,8.15
2019-01-19T01:41:06.904Z,7.33
2019-01-19T01:44:15.781Z,7.17
2019-01-19T01:47:37.213Z,6.47
2019-01-19T01:51:20.236Z,5.85
2019-01-19T01:54:51.126Z,4.90
2019-01-19T01:57:29.690Z,5.42
2019-01-19T02:00:43.558Z,5.75
2019-01-19T02:04:43.556Z,6.40
2019-01-19T02:08:19.042Z,5.50
2019-01-19T02:11:44.637Z,5.42
2019-01-19T02:14:55.523Z,4.97
2019-01-19T02:18:32.903Z,4.80
2019-01-19T02:22:02.223Z,4.70
2019-01-19T02:25:21.177Z,5.35
2019-01-19T02:28:52.700Z,4.75
2019-01-19T02:32:04.891Z,4.85
2019-01-19T02:35:33.230Z,4.87
2019-01-19T02:39:14.307Z,5.60
2019-01-19T02:42:50.486Z,4.80
2019-01-19T02:46:00.040Z,3.80
2019-01-19T02:49:30.277Z,3.55
2019-01-19T02:52:57.622Z,4.65
2019-01-19T02:56:00.402Z,4.78
2019-01-19T02:59:08.248Z,5.17
2019-01-19T03:02:39.545Z,4.97
2019-01-19T03:05:56.096Z,4.37
2019-01-19T03:09:31.023Z,4.00
2019-01-19T03:12:36.965Z,4.35
2019-01-19T03:15:36.692Z,5.65
2019-01-19T03:18:56.951Z,4.12
2019-01-19T03:22:10.632Z,5.65
2019-01-19T03:25:43.328Z,5.42
2019-01-19T03:28:28.901Z,5.15
2019-01-19T03:31:29.633Z,6.00
2019-01-19T03:34:53.385Z,5.35
2019-01-19T03:38:16.719Z,5.97
2019-01-19T03:41:50.291Z,4.72
2019-01-19T03:45:24.491Z,4.30
2019-01-19T03:48:59.874Z,5.17
2019-01-19T03:51:58.542Z,5.05
2019-01-19T03:55:11.265Z,4.60
2019-01-19T03:58:33.301Z,4.85
2019-01-19T04:02:03.217Z,4.55
2019-01-19T04:05:26.891Z,4.85
2019-01-19T04:08:42.885Z,4.12
2019-01-19T04:11:48.545Z,4.03
2019-01-19T04:15:17.430Z,4.67
2019-01-19T04:18:51.622Z,4.42
2019-01-19T04:21:56.586Z,3.90
2019-01-19T04:25:06.133Z,5.37
2019-01-19T04:27:34.899Z,6.47
2019-01-19T04:30:06.381Z,7.15
2019-01-19T04:32:36.486Z,6.12
2019-01-19T04:35:05.062Z,5.08
2019-01-19T04:37:33.445Z,5.42
2019-01-19T04:40:01.994Z,5.37
2019-01-19T04:42:30.893Z,5.87
2019-01-19T04:44:59.524Z,4.45
2019-01-19T04:47:28.473Z,5.12
2019-01-19T04:49:56.862Z,5.45
2019-01-19T04:52:25.393Z,5.08
2019-01-19T04:54:54.776Z,6.10
2019-01-19T04:57:23.271Z,5.05
2019-01-19T04:59:51.772Z,5.97
2019-01-19T05:02:20.186Z,4.97
2019-01-19T05:04:48.591Z,6.45
2019-01-19T05:07:17.153Z,5.65
2019-01-19T05:09:45.539Z,5.53
2019-01-19T05:12:14.128Z,5.12
2019-01-19T05:14:44.415Z,5.60
2019-01-19T05:17:13.107Z,5.50
2019-01-19T05:19:41.726Z,4.87
2019-01-19T05:22:10.403Z,6.05
2019-01-19T05:24:38.963Z,5.65
2019-01-19T05:27:07.362Z,5.00
2019-01-19T05:29:35.840Z,5.58
2019-01-19T05:32:06.870Z,5.45
2019-01-19T05:34:36.775Z,5.12
2019-01-19T05:37:05.458Z,4.90
2019-01-19T05:39:37.137Z,5.67
2019-01-19T05:42:05.529Z,6.30
2019-01-19T05:44:34.748Z,6.42
2019-01-19T05:47:04.915Z,4.90
2019-01-19T05:49:35.291Z,5.47
2019-01-19T05:52:04.338Z,5.67
2019-01-19T05:54:33.207Z,6.05
2019-01-19T05:57:02.952Z,4.83
2019-01-19T05:59:33.294Z,4.08
2019-01-19T06:02:04.502Z,4.00
2019-01-19T06:04:34.210Z,5.60
2019-01-19T06:07:05.857Z,4.40
2019-01-19T06:09:34.625Z,4.10
2019-01-19T06:12:03.210Z,4.75
2019-01-19T06:14:31.669Z,4.12
2019-01-19T06:17:00.956Z,4.78
2019-01-19T06:19:30.259Z,3.72
2019-01-19T06:22:00.126Z,4.05
2019-01-19T06:24:28.787Z,4.85
2019-01-19T06:26:57.664Z,5.10
2019-01-19T06:29:26.248Z,4.70
2019-01-19T06:31:55.321Z,3.85
2019-01-19T06:34:24.444Z,4.03
2019-01-19T06:36:57.355Z,5.15
2019-01-19T06:39:26.032Z,4.50
2019-01-19T06:41:57.457Z,5.60
2019-01-19T06:44:26.080Z,4.47
2019-01-19T06:46:55.318Z,4.30
2019-01-19T06:49:27.029Z,4.65
2019-01-19T06:52:01.615Z,5.25
2019-01-19T06:54:32.436Z,4.10
2019-01-19T06:57:01.142Z,4.55
2019-01-19T06:59:29.678Z,5.03
2019-01-19T07:01:58.473Z,4.55
2019-01-19T07:04:28.039Z,4.87
2019-01-19T07:07:02.516Z,4.20
2019-01-19T07:09:29.238Z,5.20
2019-01-19T07:11:58.126Z,5.33
2019-01-19T07:14:26.664Z,6.72
2019-01-19T07:16:55.025Z,7.45
2019-01-19T07:19:24.200Z,6.67
2019-01-19T07:21:52.764Z,6.08
2019-01-19T07:24:21.491Z,5.10
2019-01-19T07:26:49.953Z,4.65
2019-01-19T07:29:18.421Z,5.20
2019-01-19T07:31:46.884Z,4.60
2019-01-19T07:34:15.322Z,4.55
2019-01-19T07:36:45.475Z,4.35
2019-01-19T07:39:14.028Z,4.30
2019-01-19T07:41:42.791Z,4.50
2019-01-19T07:44:11.495Z,5.08
2019-01-19T07:46:41.156Z,5.67
2019-01-19T07:49:11.038Z,6.10
2019-01-19T07:51:39.516Z,5.75
2019-01-19T07:54:08.563Z,5.55
2019-01-19T07:56:37.145Z,5.55
2019-01-19T07:59:12.857Z,6.35
2019-01-19T08:01:41.492Z,6.00
2019-01-19T08:04:10.081Z,6.30
2019-01-19T08:06:38.461Z,6.37
2019-01-19T08:09:07.757Z,5.95
2019-01-19T08:11:36.257Z,4.50
2019-01-19T08:14:04.928Z,5.47
2019-01-19T08:16:34.211Z,6.12
2019-01-19T08:19:02.885Z,5.65
2019-01-19T08:21:31.256Z,5.65
2019-01-19T08:23:59.763Z,5.15
2019-01-19T08:26:28.120Z,5.00
2019-01-19T08:28:58.182Z,6.08
2019-01-19T08:31:26.847Z,6.35
2019-01-19T08:33:55.947Z,5.47
2019-01-19T08:36:24.537Z,6.70
2019-01-19T08:38:53.087Z,5.55
2019-01-19T08:41:21.654Z,6.90
2019-01-19T08:43:55.658Z,5.22
2019-01-19T08:46:24.734Z,7.65
2019-01-19T08:48:54.872Z,7.03
2019-01-19T08:51:23.371Z,6.58
2019-01-19T08:53:51.979Z,6.30
2019-01-19T08:56:22.152Z,7.75
2019-01-19T08:58:50.614Z,6.75
2019-01-19T09:01:19.080Z,5.83
2019-01-19T09:03:48.040Z,5.92
2019-01-19T09:06:16.507Z,6.35
2019-01-19T09:08:44.957Z,6.75
2019-01-19T09:11:13.736Z,5.75
2019-01-19T09:13:42.780Z,6.50
2019-01-19T09:16:20.220Z,6.60
2019-01-19T09:18:48.768Z,7.08
2019-01-19T09:21:17.327Z,6.28
2019-01-19T09:24:00.653Z,7.17
2019-01-19T09:26:29.516Z,6.72
2019-01-19T09:28:58.168Z,7.47
2019-01-19T09:31:28.171Z,7.58
2019-01-19T09:33:58.388Z,7.50
2019-01-19T09:36:27.062Z,6.95
2019-01-19T09:38:55.635Z,7.53
2019-01-19T09:41:23.993Z,7.28
2019-01-19T09:43:52.537Z,6.78
2019-01-19T09:46:20.892Z,5.87
2019-01-19T09:48:49.374Z,6.97
2019-01-19T09:51:19.031Z,6.50
2019-01-19T09:53:47.453Z,6.87
2019-01-19T09:56:15.954Z,7.58
2019-01-19T09:58:45.414Z,6.08
2019-01-19T10:01:14.367Z,6.37
2019-01-19T10:03:43.748Z,6.00
2019-01-19T10:06:12.500Z,6.65
2019-01-19T10:08:42.682Z,6.72
2019-01-19T10:11:11.815Z,6.33
2019-01-19T10:13:40.221Z,7.10
2019-01-19T10:16:08.786Z,6.80
2019-01-19T10:18:37.242Z,6.40
2019-01-19T10:21:05.792Z,5.92
2019-01-19T10:23:34.353Z,5.65
2019-01-19T10:26:02.802Z,6.22
2019-01-19T10:28:31.258Z,7.67
2019-01-19T10:30:59.816Z,6.53
2019-01-19T10:33:28.378Z,6.62
2019-01-19T10:35:56.831Z,6.20
2019-01-19T10:38:25.293Z,5.70
2019-01-19T10:40:54.342Z,6.25
2019-01-19T10:43:22.750Z,5.95
2019-01-19T10:45:52.902Z,7.85
2019-01-19T10:48:21.862Z,7.80
2019-01-19T10:50:50.408Z,6.85
2019-01-19T10:53:18.782Z,6.78
2019-01-19T10:55:47.132Z,6.03
2019-01-19T10:58:15.480Z,5.47
2019-01-19T11:00:43.843Z,6.03
2019-01-19T11:03:13.102Z,5.47
2019-01-19T11:05:41.568Z,5.62
2019-01-19T11:08:12.307Z,5.40
2019-01-19T11:10:40.768Z,5.67
2019-01-19T11:13:09.184Z,4.92
2019-01-19T11:15:37.749Z,6.12
2019-01-19T11:18:06.161Z,5.62
2019-01-19T11:20:34.624Z,5.30
2019-01-19T11:23:02.971Z,5.78
2019-01-19T11:25:31.442Z,6.15
2019-01-19T11:27:59.795Z,5.47
2019-01-19T11:30:30.118Z,5.33
2019-01-19T11:32:58.459Z,5.78
2019-01-19T11:35:26.938Z,5.22
2019-01-19T11:37:55.285Z,5.30
2019-01-19T11:40:27.484Z,5.50
2019-01-19T11:42:56.576Z,5.97
2019-01-19T11:45:26.051Z,5.30
2019-01-19T11:47:55.110Z,5.55
2019-01-19T11:50:23.691Z,4.72
2019-01-19T11:52:52.889Z,5.22
2019-01-19T11:55:21.751Z,4.80
2019-01-19T11:57:55.254Z,5.30
2019-01-19T12:00:30.950Z,5.47
2019-01-19T12:03:00.312Z,5.22
2019-01-19T12:05:32.101Z,5.33
2019-01-19T12:08:01.426Z,5.72
2019-01-19T12:10:30.619Z,4.80
2019-01-19T12:12:59.408Z,4.75
2019-01-19T12:15:28.568Z,5.92
2019-01-19T12:17:57.785Z,5.78
2019-01-19T12:20:39.435Z,4.60
2019-01-19T12:23:09.510Z,4.42
2019-01-19T12:25:40.122Z,5.70
2019-01-19T12:28:09.158Z,5.28
2019-01-19T12:30:39.355Z,4.33
2019-01-19T12:33:08.210Z,4.35
2019-01-19T12:35:37.071Z,4.12
2019-01-19T12:38:05.544Z,3.83
2019-01-19T12:40:34.997Z,3.98
2019-01-19T12:43:08.886Z,4.08
2019-01-19T12:45:42.326Z,4.85
2019-01-19T12:48:11.924Z,4.60
2019-01-19T12:50:40.708Z,4.78
2019-01-19T12:53:12.277Z,5.12
2019-01-19T12:55:41.186Z,4.08
2019-01-19T12:58:09.966Z,4.67
2019-01-19T13:00:40.169Z,5.97
2019-01-19T13:03:12.029Z,4.95
2019-01-19T13:06:00.017Z,4.87
2019-01-19T13:08:34.292Z,5.40
2019-01-19T13:11:26.319Z,5.60
2019-01-19T13:14:03.070Z,5.78
2019-01-19T13:17:26.611Z,5.90
2019-01-19T13:20:23.004Z,5.40
2019-01-19T13:24:07.406Z,5.55
2019-01-19T13:27:28.579Z,4.55
2019-01-19T13:30:47.222Z,5.28
2019-01-19T13:33:54.947Z,5.83
2019-01-19T13:37:00.011Z,6.28
2019-01-19T13:40:15.058Z,6.30
2019-01-19T13:43:44.853Z,6.22
2019-01-19T13:47:25.780Z,7.30
2019-01-19T13:50:28.428Z,6.53
2019-01-19T13:54:01.169Z,7.05
2019-01-19T13:57:33.059Z,7.25
2019-01-19T14:01:19.829Z,6.45
2019-01-19T14:04:59.348Z,6.50
2019-01-19T14:08:01.829Z,6.55
2019-01-19T14:11:17.234Z,6.28
2019-01-19T14:14:25.099Z,7.30
2019-01-19T14:17:43.241Z,7.90
2019-01-19T14:20:51.035Z,6.55
2019-01-19T14:24:23.225Z,6.33
2019-01-19T14:27:45.082Z,6.47
2019-01-19T14:31:38.812Z,6.28
2019-01-19T14:35:01.440Z,6.67
2019-01-19T14:38:36.388Z,6.22
2019-01-19T14:42:14.173Z,6.97
2019-01-19T14:45:49.702Z,6.50
2019-01-19T14:49:08.562Z,6.25
2019-01-19T14:52:16.930Z,6.72
2019-01-19T14:55:16.179Z,7.15
2019-01-19T14:59:21.487Z,6.90
2019-01-19T15:02:47.869Z,6.22
2019-01-19T15:06:01.005Z,6.90
2019-01-19T15:09:29.829Z,8.00
2019-01-19T15:13:02.236Z,7.35
2019-01-19T15:16:50.491Z,6.37
2019-01-19T15:20:37.143Z,6.47
2019-01-19T15:24:00.769Z,7.22
2019-01-19T15:27:30.037Z,7.03
2019-01-19T15:30:29.769Z,7.35
2019-01-19T15:33:35.938Z,7.55
2019-01-19T15:36:28.163Z,7.78
2019-01-19T15:39:57.468Z,7.42
2019-01-19T15:43:29.922Z,7.45
2019-01-19T15:46:48.313Z,7.37
2019-01-19T15:50:13.366Z,8.08
2019-01-19T15:53:49.187Z,7.08
2019-01-19T15:57:39.189Z,6.97
2019-01-19T16:00:53.677Z,7.40
2019-01-19T16:04:14.325Z,7.47
2019-01-19T16:07:50.130Z,7.67
2019-01-19T16:11:41.273Z,7.28
2019-01-19T16:15:12.750Z,7.45
2019-01-19T16:18:42.399Z,7.30
2019-01-19T16:22:31.686Z,8.05
2019-01-19T16:26:04.625Z,8.33
2019-01-19T16:29:11.042Z,8.70
2019-01-19T16:32:08.152Z,8.48
2019-01-19T16:35:55.262Z,7.65
2019-01-19T16:39:25.728Z,8.30
2019-01-19T16:42:33.057Z,8.03
2019-01-19T16:45:54.113Z,7.35
2019-01-19T16:48:41.033Z,7.75
2019-01-19T16:51:50.649Z,7.33
2019-01-19T16:55:05.628Z,7.70
2019-01-19T16:58:23.897Z,9.68
2019-01-19T17:02:11.981Z,10.10
2019-01-19T17:05:25.883Z,9.08
2019-01-19T17:08:39.286Z,10.18
2019-01-19T17:11:48.922Z,9.70
2019-01-19T17:15:00.397Z,9.80
2019-01-19T17:18:24.709Z,10.15
2019-01-19T17:22:02.047Z,12.00
2019-01-19T17:25:46.141Z,8.70
2019-01-19T17:29:09.604Z,11.63
2019-01-19T17:32:29.161Z,10.45
2019-01-19T17:36:08.669Z,11.12
2019-01-19T17:40:00.822Z,9.05
2019-01-19T17:42:59.328Z,9.28
2019-01-19T17:46:13.990Z,8.45
2019-01-19T17:49:26.586Z,9.55
2019-01-19T17:53:06.620Z,9.63
2019-01-19T17:56:24.442Z,11.03
2019-01-19T17:59:10.439Z,12.63
2019-01-19T18:02:49.371Z,15.98
2019-01-19T18:05:51.994Z,17.27
2019-01-19T18:09:19.469Z,15.38
2019-01-19T18:12:23.432Z,14.75
2019-01-19T18:16:04.670Z,15.20
2019-01-19T18:19:24.009Z,14.40
2019-01-19T18:23:14.921Z,13.95
2019-01-19T18:26:19.334Z,11.68
2019-01-19T18:29:12.732Z,11.55
2019-01-19T18:32:47.569Z,13.40
2019-01-19T18:36:47.418Z,13.75
2019-01-19T18:40:26.430Z,13.08
2019-01-19T18:44:01.811Z,12.30
2019-01-19T18:47:33.934Z,11.53
2019-01-19T18:51:22.103Z,12.53
2019-01-19T18:54:57.302Z,15.23
2019-01-19T18:58:29.364Z,14.00
2019-01-19T19:01:32.290Z,13.98
2019-01-19T19:05:16.622Z,14.20
2019-01-19T19:09:14.210Z,12.28
2019-01-19T19:12:03.295Z,12.30
2019-01-19T19:15:33.628Z,11.57
2019-01-19T19:19:05.429Z,14.38
2019-01-19T19:22:37.338Z,11.97
2019-01-19T19:26:05.385Z,12.65
2019-01-19T19:29:39.063Z,11.45
2019-01-19T19:32:59.242Z,12.75
2019-01-19T19:36:25.384Z,13.13
2019-01-19T19:39:36.454Z,13.30
2019-01-19T19:42:47.527Z,12.55
2019-01-19T19:46:27.574Z,12.43
2019-01-19T19:49:26.075Z,13.93
2019-01-19T19:52:02.508Z,13.68
2019-01-19T19:54:32.279Z,14.38
2019-01-19T19:57:00.852Z,14.43
2019-01-19T19:59:29.321Z,13.85
2019-01-19T20:01:57.921Z,12.50
2019-01-19T20:04:26.834Z,13.80
2019-01-19T20:06:56.421Z,11.12
2019-01-19T20:09:25.600Z,14.03
2019-01-19T20:11:59.138Z,12.58
2019-01-19T20:14:27.539Z,12.60
2019-01-19T20:16:55.932Z,14.23
2019-01-19T20:19:24.294Z,14.35
2019-01-19T20:21:54.186Z,13.55
2019-01-19T20:24:22.578Z,12.35
2019-01-19T20:26:50.968Z,12.65
2019-01-19T20:29:19.736Z,12.82
2019-01-19T20:31:48.993Z,12.33
2019-01-19T20:34:17.932Z,14.90
2019-01-19T20:36:47.913Z,13.65
2019-01-19T20:39:16.287Z,14.00
2019-01-19T20:41:44.778Z,14.80
2019-01-19T20:44:13.203Z,15.23
2019-01-19T20:46:41.685Z,14.68
2019-01-19T20:49:10.070Z,14.05
2019-01-19T20:51:38.442Z,14.40
2019-01-19T20:54:06.820Z,14.80
2019-01-19T20:56:35.202Z,14.18
2019-01-19T20:59:03.687Z,14.73
2019-01-19T21:01:32.636Z,15.70
2019-01-19T21:04:01.194Z,14.53
2019-01-19T21:06:29.564Z,15.78
2019-01-19T21:08:58.224Z,17.25
2019-01-19T21:11:26.599Z,15.30
2019-01-19T21:13:55.089Z,17.98
2019-01-19T21:16:23.483Z,17.73
2019-01-19T21:18:52.185Z,18.20
2019-01-19T21:21:20.761Z,16.95
2019-01-19T21:23:50.941Z,15.13
2019-01-19T21:26:19.357Z,15.55
2019-01-19T21:28:49.339Z,15.23
2019-01-19T21:31:17.736Z,12.85
2019-01-19T21:33:46.197Z,14.13
2019-01-19T21:36:14.685Z,13.68
2019-01-19T21:38:43.284Z,12.82
2019-01-19T21:41:11.692Z,13.78
2019-01-19T21:43:40.186Z,14.87
2019-01-19T21:46:08.558Z,14.35
2019-01-19T21:48:37.226Z,14.90
2019-01-19T21:51:05.752Z,14.18
2019-01-19T21:53:36.008Z,15.28
2019-01-19T21:56:04.487Z,15.63
2019-01-19T21:58:34.669Z,15.03
2019-01-19T22:01:03.237Z,16.52
2019-01-19T22:03:31.813Z,15.00
2019-01-19T22:06:00.360Z,15.88
2019-01-19T22:08:28.750Z,16.07
2019-01-19T22:10:58.110Z,15.50
2019-01-19T22:13:26.549Z,16.10
2019-01-19T22:15:55.020Z,13.25
2019-01-19T22:18:23.602Z,13.98
2019-01-19T22:20:52.161Z,14.78
2019-01-19T22:23:20.636Z,13.70
2019-01-19T22:25:48.990Z,12.35
2019-01-19T22:28:17.361Z,10.75
2019-01-19T22:30:45.727Z,11.28
2019-01-19T22:33:14.655Z,10.23
2019-01-19T22:35:43.522Z,10.28
2019-01-19T22:38:11.888Z,10.63
2019-01-19T22:40:40.257Z,10.60
2019-01-19T22:43:12.581Z,11.43
2019-01-19T22:45:40.964Z,9.75
2019-01-19T22:48:09.441Z,9.78
2019-01-19T22:50:37.908Z,12.05
2019-01-19T22:53:06.880Z,10.65
2019-01-19T22:55:37.041Z,12.28
2019-01-19T22:58:05.445Z,12.03
2019-01-19T23:01:27.703Z,13.05
2019-01-19T23:03:56.186Z,10.93
2019-01-19T23:06:24.647Z,12.07
2019-01-19T23:08:53.028Z,11.40
2019-01-19T23:11:22.401Z,12.43
2019-01-19T23:13:51.126Z,11.78
2019-01-19T23:16:19.596Z,11.65
2019-01-19T23:18:48.065Z,11.83
2019-01-19T23:21:16.427Z,11.50
2019-01-19T23:23:45.268Z,10.72
2019-01-19T23:26:15.042Z,11.50
2019-01-19T23:28:43.512Z,11.68
2019-01-19T23:31:11.997Z,11.22
2019-01-19T23:33:42.203Z,10.53
2019-01-19T23:36:12.387Z,12.05
2019-01-19T23:38:40.754Z,11.93
2019-01-19T23:41:09.454Z,11.80
2019-01-19T23:43:37.905Z,13.40
2019-01-19T23:46:06.377Z,13.43
2019-01-19T23:48:35.335Z,13.30
2019-01-19T23:51:05.512Z,12.50
2019-01-19T23:53:33.941Z,11.40
2019-01-19T23:56:02.424Z,12.82
2019-01-19T23:58:30.789Z,13.25
